Weather History for Smithfield, NC

Change the Weather History Date:

Sunday, March 10, 2013

  Actual Average Record
Temperature  
Mean Temperature 48 °F -  
Max Temperature 68 °F 61 °F 84 °F (1974)
Min Temperature 28 °F 37 °F 18 °F (1960)
Degree Days  
Heating Degree Days 17    
Moisture  
Dew Point 29 °F    
Average Humidity 62    
Maximum Humidity 100    
Minimum Humidity 16    
Precipitation  
Precipitation 0.00 in - - ()
Sea Level Pressure  
Sea Level Pressure 30.27 in    
Wind  
Wind Speed 1 mph (East)    
Max Wind Speed 7 mph    
Max Gust Speed -    
Visibility 10 miles    
Events      
Averages and records for this station are not official NWS values.
T = Trace of Precipitation, MM = Missing Value Source: NWS Daily Summary

Daily Weather History Graph

Daily Weather History Graph

Search for Another Location

Airport:

Trip Planner

Search our weather history database for the weather conditions in past years. The results will help you decide how hot, cold, wet, or windy it might be!

Date:

Astronomy

Mar. 10, 2013 Rise Set
Actual Time 7:30 AM EDT 7:17 PM EDT
Civil Twilight 7:05 AM EDT 7:42 PM EDT
Nautical Twilight 6:36 AM EDT 8:12 PM EDT
Astronomical Twilight 6:06 AM EDT 8:41 PM EDT
Moon 6:28 AM EDT (3/10) 6:23 PM EDT (3/10)
Length of Visible Light 12h 36m
Length of Day
11h 46m
Waning Crescent, 2% of the Moon is Illuminated
Mar 10
Waning Crescent
Mar 11
New
Mar 19
First Quarter
Mar 27
Full
Apr 3
Last Quarter

Hourly Weather History & Observations

Time (EDT) Temp. Windchill Dew Point Humidity Pressure Visibility Wind Dir Wind Speed Gust Speed Precip Events Conditions
12:15 AM 32.0 °F - 32.0 °F 100% 30.30 in 10.0 mi Calm Calm - N/A   Clear
12:35 AM 32.0 °F 28.7 °F 32.0 °F 100% 30.30 in 10.0 mi WNW 3.5 mph - N/A   Clear
12:55 AM 32.0 °F - 32.0 °F 100% 30.30 in 10.0 mi Calm Calm - N/A   Clear
1:15 AM 32.0 °F - 32.0 °F 100% 30.31 in 10.0 mi Calm Calm - N/A   Clear
1:35 AM 32.0 °F - 32.0 °F 100% 30.30 in 10.0 mi Calm Calm - N/A   Clear
1:55 AM 32.0 °F - 32.0 °F 100% 30.30 in 10.0 mi Calm Calm - N/A   Clear
3:15 AM 32.0 °F - 32.0 °F 100% 30.29 in 10.0 mi Calm Calm - N/A   Clear
3:35 AM 32.0 °F - 32.0 °F 100% 30.29 in 10.0 mi Calm Calm - N/A   Clear
3:55 AM 30.2 °F - 30.2 °F 100% 30.27 in 10.0 mi Calm Calm - N/A   Clear
4:15 AM 30.2 °F - 30.2 °F 100% 30.27 in 10.0 mi Calm Calm - N/A   Clear
4:35 AM 30.2 °F - 30.2 °F 100% 30.27 in 10.0 mi Calm Calm - N/A   Clear
4:55 AM 30.2 °F - 30.2 °F 100% 30.27 in 10.0 mi Calm Calm - N/A   Clear
5:15 AM 30.2 °F - 30.2 °F 100% 30.27 in 10.0 mi Calm Calm - N/A   Clear
5:35 AM 30.2 °F - 30.2 °F 100% 30.28 in 10.0 mi Calm Calm - N/A   Clear
5:55 AM 30.2 °F - 30.2 °F 100% 30.28 in 10.0 mi Calm Calm - N/A   Clear
6:15 AM 30.2 °F - 30.2 °F 100% 30.29 in 10.0 mi Calm Calm - N/A   Clear
6:35 AM 30.2 °F - 30.2 °F 100% 30.29 in 10.0 mi Calm Calm - N/A   Clear
6:55 AM 28.4 °F - 28.4 °F 100% 30.30 in 10.0 mi Calm Calm - N/A   Clear
7:15 AM 28.4 °F - 28.4 °F 100% 30.30 in 10.0 mi Calm Calm - N/A   Clear
7:35 AM 30.2 °F - 30.2 °F 100% 30.31 in 10.0 mi Calm Calm - N/A   Clear
7:55 AM 30.2 °F - 30.2 °F 100% 30.31 in 10.0 mi Calm Calm - N/A   Clear
8:15 AM 32.0 °F - 32.0 °F 100% 30.31 in 10.0 mi Calm Calm - N/A   Clear
8:35 AM 32.0 °F - 32.0 °F 100% 30.31 in 10.0 mi Calm Calm - N/A   Clear
8:55 AM 35.6 °F - 33.8 °F 93% 30.31 in 10.0 mi Calm Calm - N/A   Clear
9:15 AM 41.0 °F - 35.6 °F 81% 30.31 in 10.0 mi Calm Calm - N/A   Clear
9:35 AM 44.6 °F - 35.6 °F 71% 30.31 in 10.0 mi Calm Calm - N/A   Clear
9:55 AM 48.2 °F - 32.0 °F 54% 30.31 in 10.0 mi Calm Calm - N/A   Clear
10:15 AM 50.0 °F - 32.0 °F 50% 30.32 in 10.0 mi Calm Calm - N/A   Clear
10:35 AM 51.8 °F - 30.2 °F 44% 30.31 in 10.0 mi ENE 4.6 mph - N/A   Clear
10:55 AM 53.6 °F - 30.2 °F 41% 30.32 in 10.0 mi North 3.5 mph - N/A   Clear
11:15 AM 55.4 °F - 26.6 °F 33% 30.33 in 10.0 mi Calm Calm - N/A   Clear
11:35 AM 59.0 °F - 26.6 °F 29% 30.33 in 10.0 mi Calm Calm - N/A   Clear
11:55 AM 59.0 °F - 24.8 °F 27% 30.32 in 10.0 mi Calm Calm - N/A   Clear
12:15 PM 59.0 °F - 26.6 °F 29% 30.31 in 10.0 mi Calm Calm - N/A   Clear
12:35 PM 60.8 °F - 24.8 °F 25% 30.30 in 10.0 mi Calm Calm - N/A   Clear
12:55 PM 60.8 °F - 23.0 °F 23% 30.29 in 10.0 mi South 4.6 mph - N/A   Clear
1:15 PM 62.6 °F - 21.2 °F 20% 30.29 in 10.0 mi Calm Calm - N/A   Clear
1:35 PM 62.6 °F - 21.2 °F 20% 30.28 in 10.0 mi NNE 3.5 mph - N/A   Clear
1:55 PM 62.6 °F - 23.0 °F 22% 30.27 in 10.0 mi ESE 4.6 mph - N/A   Clear
2:15 PM 62.6 °F - 21.2 °F 20% 30.26 in 10.0 mi SE 3.5 mph - N/A   Clear
2:35 PM 64.4 °F - 21.2 °F 19% 30.25 in 10.0 mi SE 3.5 mph - N/A   Clear
2:55 PM 64.4 °F - 19.4 °F 18% 30.25 in 10.0 mi SE 3.5 mph - N/A   Clear
3:15 PM 64.4 °F - 17.6 °F 16% 30.25 in 10.0 mi Calm Calm - N/A   Clear
3:35 PM 64.4 °F - 19.4 °F 18% 30.24 in 10.0 mi Calm Calm - N/A   Clear
3:55 PM 64.4 °F - 19.4 °F 18% 30.24 in 10.0 mi ENE 6.9 mph - N/A   Clear
4:15 PM 66.2 °F - 21.2 °F 18% 30.23 in 10.0 mi East 5.8 mph - N/A   Clear
4:35 PM 68.0 °F - 21.2 °F 17% 30.23 in 10.0 mi East 3.5 mph - N/A   Clear
4:55 PM 68.0 °F - 23.0 °F 18% 30.23 in 10.0 mi Calm Calm - N/A   Clear
5:15 PM 66.2 °F - 21.2 °F 18% 30.22 in 10.0 mi East 4.6 mph - N/A   Clear
5:35 PM 64.4 °F - 19.4 °F 18% 30.22 in 10.0 mi Calm Calm - N/A   Clear
5:55 PM 62.6 °F - 21.2 °F 20% 30.22 in 10.0 mi Calm Calm - N/A   Clear
6:15 PM 62.6 °F - 23.0 °F 22% 30.23 in 10.0 mi Calm Calm - N/A   Clear
6:35 PM 62.6 °F - 23.0 °F 22% 30.22 in 10.0 mi Calm Calm - N/A   Clear
6:55 PM 60.8 °F - 28.4 °F 29% 30.23 in 10.0 mi Calm Calm - N/A   Clear
7:15 PM 57.2 °F - 28.4 °F 33% 30.23 in 10.0 mi Calm Calm - N/A   Clear
7:35 PM 51.8 °F - 30.2 °F 44% 30.23 in 10.0 mi Calm Calm - N/A   Clear
7:55 PM 50.0 °F - 32.0 °F 50% 30.24 in 10.0 mi Calm Calm - N/A   Clear
8:15 PM 48.2 °F - 32.0 °F 54% 30.24 in 10.0 mi Calm Calm - N/A   Clear
8:35 PM 46.4 °F - 35.6 °F 66% 30.24 in 10.0 mi Calm Calm - N/A   Clear
8:55 PM 44.6 °F - 32.0 °F 61% 30.24 in 10.0 mi Calm Calm - N/A   Clear
9:15 PM 42.8 °F - 33.8 °F 70% 30.24 in 10.0 mi Calm Calm - N/A   Clear
9:35 PM 42.8 °F - 32.0 °F 66% 30.25 in 10.0 mi Calm Calm - N/A   Clear
9:55 PM 41.0 °F - 33.8 °F 76% 30.25 in 10.0 mi Calm Calm - N/A   Clear
10:15 PM 42.8 °F - 33.8 °F 70% 30.26 in 10.0 mi Calm Calm - N/A   Clear
10:35 PM 41.0 °F - 33.8 °F 76% 30.26 in 10.0 mi Calm Calm - N/A   Clear
10:55 PM 41.0 °F - 33.8 °F 76% 30.26 in 10.0 mi Calm Calm - N/A   Clear
11:15 PM 42.8 °F - 33.8 °F 70% 30.26 in 10.0 mi Calm Calm - N/A   Clear
11:35 PM 39.2 °F - 33.8 °F 81% 30.26 in 10.0 mi Calm Calm - N/A   Clear
11:55 PM 39.2 °F - 33.8 °F 81% 30.26 in 10.0 mi Calm Calm - N/A   Clear
12:15 AM 37.4 °F - 33.8 °F 87% 30.25 in 10.0 mi Calm Calm - N/A   Clear
12:35 AM 37.4 °F - 33.8 °F 87% 30.25 in 10.0 mi Calm Calm - N/A   Clear
12:55 AM 37.4 °F - 32.0 °F 81% 30.24 in 10.0 mi Calm Calm - N/A   Clear